Monahans, TX (79756)

3:21 AM CDT on September 26, 2016 (GMT -0500)
Monahans - JBurton Inc. - World Headquarters | | Change Station

Elev 2625 ft 31.59 °N, 102.88 °W | Updated 23 seconds ago

Overcast
Overcast
62.6 °F
Feels Like 62.6 °F
N
1.1
Wind Variable Wind from NNE
Gusts 2.5 mph

Today
High -- | Low -- °F
--% Chance of Precip.
Yesterday
High -- | Low -- °F
Precip. -- in
Pressure 30.15 in
Visibility 10.0 miles
Clouds Overcast 2300 ft
Dew Point 53 °F
Humidity 70%
Rainfall 0.00 in
Snow Depth Not available.
7:42 AM 7:42 PM
Waning Crescent, 20% visible
METAR KINK 260753Z AUTO 04010KT 10SM OVC023 16/12 A3024 RMK AO2 SLP208 T01610117 PWINO TSNO
Pressure 30.15 in
Visibility 10.0 miles
Clouds Overcast 2300 ft
Dew Point 53 °F
Humidity 70%
Rainfall 0.00 in
Snow Depth Not available.
7:42 AM 7:42 PM
Waning Crescent, 20% visible
METAR KINK 260753Z AUTO 04010KT 10SM OVC023 16/12 A3024 RMK AO2 SLP208 T01610117 PWINO TSNO

10-Day Weather Forecast

Almanac

Astronomy

Sep. 26, 2016 Rise Set
Actual Time
Civil Twilight
Nautical Twilight
Astronomical Twilight
Moon
Length of Visible Light
Length of Day
Tomorrow will be .
, % of the Moon is Illuminated

Today's Extremes

State Highs State Lows

Community

WunderPhotos

Upload Photos

1,941,853 photos uploaded!

WunderBlog® & News

Nearby

Air Quality

  Air Quality AQ Index Pollutant
Not available.

Snow Depth

Station Depth Elevation

Earthquake Activity

City Distance Mag. Time & Date
Minimum magnitude displayed is 2.5.

Coastal Water Temperatures

Place Temperature

Stations

Nearby Weather Stations

Station Location Temp. Windchill Dew Point Humidity Wind Precip. Elev Updated Type
                   

Watches & Warnings

There are currently no watches in effect.